sensor_id;sensor_type;location;lat;lon;timestamp;pressure;altitude;pressure_sealevel;temperature;humidity
68859;BME280;55864;49.238;8.092;2022-11-11T00:01:54;100864.66;;;9.08;76.65
68859;BME280;55864;49.238;8.092;2022-11-11T00:04:15;100861.31;;;9.18;76.41
68859;BME280;55864;49.238;8.092;2022-11-11T00:06:34;100873.75;;;9.29;75.62
68859;BME280;55864;49.238;8.092;2022-11-11T00:08:53;100871.88;;;9.31;76.57
68859;BME280;55864;49.238;8.092;2022-11-11T00:11:12;100874.44;;;9.18;76.05
68859;BME280;55864;49.238;8.092;2022-11-11T00:13:33;100883.59;;;8.85;78.33
68859;BME280;55864;49.238;8.092;2022-11-11T00:15:52;100881.84;;;8.71;79.78
68859;BME280;55864;49.238;8.092;2022-11-11T00:18:11;100878.56;;;8.82;79.58
68859;BME280;55864;49.238;8.092;2022-11-11T00:20:32;100876.63;;;9.12;77.89
68859;BME280;55864;49.238;8.092;2022-11-11T00:22:51;100873.03;;;9.13;78.29
68859;BME280;55864;49.238;8.092;2022-11-11T00:25:13;100876.78;;;9.09;78.63
68859;BME280;55864;49.238;8.092;2022-11-11T00:27:34;100884.34;;;9.01;78.37
68859;BME280;55864;49.238;8.092;2022-11-11T00:29:53;100885.28;;;8.86;79.53
68859;BME280;55864;49.238;8.092;2022-11-11T00:32:13;100888.41;;;8.64;79.50
68859;BME280;55864;49.238;8.092;2022-11-11T00:34:32;100888.13;;;8.69;79.00
68859;BME280;55864;49.238;8.092;2022-11-11T00:36:52;100903.09;;;8.52;79.85
68859;BME280;55864;49.238;8.092;2022-11-11T00:39:11;100908.78;;;8.45;80.22
68859;BME280;55864;49.238;8.092;2022-11-11T00:41:31;100902.97;;;8.26;79.37
68859;BME280;55864;49.238;8.092;2022-11-11T00:43:51;100905.31;;;8.44;79.86
68859;BME280;55864;49.238;8.092;2022-11-11T00:46:11;100913.38;;;8.55;79.05
68859;BME280;55864;49.238;8.092;2022-11-11T00:48:30;100915.41;;;8.93;76.27
68859;BME280;55864;49.238;8.092;2022-11-11T00:50:49;100920.00;;;8.89;76.83
68859;BME280;55864;49.238;8.092;2022-11-11T00:53:11;100923.56;;;8.46;78.68
68859;BME280;55864;49.238;8.092;2022-11-11T00:55:30;100913.19;;;8.44;79.12
68859;BME280;55864;49.238;8.092;2022-11-11T00:57:49;100911.13;;;8.35;79.05
68859;BME280;55864;49.238;8.092;2022-11-11T01:00:09;100915.56;;;8.19;79.75
68859;BME280;55864;49.238;8.092;2022-11-11T01:02:29;100919.13;;;8.18;79.43
68859;BME280;55864;49.238;8.092;2022-11-11T01:04:48;100917.41;;;8.03;79.66
68859;BME280;55864;49.238;8.092;2022-11-11T01:07:07;100914.84;;;8.31;80.20
68859;BME280;55864;49.238;8.092;2022-11-11T01:09:27;100910.28;;;8.35;79.30
68859;BME280;55864;49.238;8.092;2022-11-11T01:11:46;100908.41;;;8.65;77.81
68859;BME280;55864;49.238;8.092;2022-11-11T01:14:05;100911.47;;;8.86;76.15
68859;BME280;55864;49.238;8.092;2022-11-11T01:16:25;100928.63;;;8.49;78.33
68859;BME280;55864;49.238;8.092;2022-11-11T01:18:45;100921.78;;;8.32;79.70
68859;BME280;55864;49.238;8.092;2022-11-11T01:21:05;100915.97;;;8.55;78.73
68859;BME280;55864;49.238;8.092;2022-11-11T01:23:25;100909.63;;;8.31;79.88
68859;BME280;55864;49.238;8.092;2022-11-11T01:25:45;100913.47;;;8.68;77.84
68859;BME280;55864;49.238;8.092;2022-11-11T01:28:05;100913.84;;;8.76;77.24
68859;BME280;55864;49.238;8.092;2022-11-11T01:30:24;100918.31;;;8.46;77.89
68859;BME280;55864;49.238;8.092;2022-11-11T01:32:43;100916.63;;;8.31;78.91
68859;BME280;55864;49.238;8.092;2022-11-11T01:35:03;100921.41;;;8.38;79.04
68859;BME280;55864;49.238;8.092;2022-11-11T01:37:22;100916.56;;;8.32;78.73
68859;BME280;55864;49.238;8.092;2022-11-11T01:39:41;100914.31;;;8.26;79.01
68859;BME280;55864;49.238;8.092;2022-11-11T01:42:02;100911.78;;;8.39;78.86
68859;BME280;55864;49.238;8.092;2022-11-11T01:44:42;100913.00;;;8.62;77.21
68859;BME280;55864;49.238;8.092;2022-11-11T01:47:04;100917.78;;;8.27;77.64
68859;BME280;55864;49.238;8.092;2022-11-11T01:49:29;100904.13;;;8.36;78.61
68859;BME280;55864;49.238;8.092;2022-11-11T01:51:59;100911.59;;;8.56;78.32
68859;BME280;55864;49.238;8.092;2022-11-11T01:54:25;100896.34;;;8.63;76.43
68859;BME280;55864;49.238;8.092;2022-11-11T01:56:48;100900.16;;;8.29;77.79
68859;BME280;55864;49.238;8.092;2022-11-11T01:59:12;100903.47;;;8.61;76.91
68859;BME280;55864;49.238;8.092;2022-11-11T02:01:32;100897.94;;;8.65;76.34
68859;BME280;55864;49.238;8.092;2022-11-11T02:03:53;100898.69;;;8.53;76.63
68859;BME280;55864;49.238;8.092;2022-11-11T02:06:14;100912.91;;;8.49;78.03
68859;BME280;55864;49.238;8.092;2022-11-11T02:08:35;100904.75;;;8.68;76.56
68859;BME280;55864;49.238;8.092;2022-11-11T02:10:55;100909.25;;;8.66;76.30
68859;BME280;55864;49.238;8.092;2022-11-11T02:13:15;100906.59;;;8.23;79.04
68859;BME280;55864;49.238;8.092;2022-11-11T02:15:36;100895.13;;;8.26;79.08
68859;BME280;55864;49.238;8.092;2022-11-11T02:17:55;100891.66;;;8.25;78.38
68859;BME280;55864;49.238;8.092;2022-11-11T02:20:17;100895.22;;;8.38;77.63
68859;BME280;55864;49.238;8.092;2022-11-11T02:22:43;100893.84;;;8.03;78.99
68859;BME280;55864;49.238;8.092;2022-11-11T02:25:09;100889.28;;;8.07;78.84
68859;BME280;55864;49.238;8.092;2022-11-11T02:27:29;100887.31;;;7.96;78.65
68859;BME280;55864;49.238;8.092;2022-11-11T02:29:52;100894.75;;;7.88;79.28
68859;BME280;55864;49.238;8.092;2022-11-11T02:32:13;100889.41;;;8.19;77.63
68859;BME280;55864;49.238;8.092;2022-11-11T02:34:33;100901.00;;;8.29;78.08
68859;BME280;55864;49.238;8.092;2022-11-11T02:36:52;100897.84;;;8.24;77.63
68859;BME280;55864;49.238;8.092;2022-11-11T02:39:11;100897.88;;;7.95;77.77
68859;BME280;55864;49.238;8.092;2022-11-11T02:41:31;100909.28;;;7.78;78.30
68859;BME280;55864;49.238;8.092;2022-11-11T02:43:50;100902.56;;;7.74;78.93
68859;BME280;55864;49.238;8.092;2022-11-11T02:46:09;100896.06;;;7.95;77.78
68859;BME280;55864;49.238;8.092;2022-11-11T02:48:28;100897.03;;;8.08;78.46
68859;BME280;55864;49.238;8.092;2022-11-11T02:50:48;100905.00;;;8.21;76.95
68859;BME280;55864;49.238;8.092;2022-11-11T02:53:07;100907.38;;;7.96;77.88
68859;BME280;55864;49.238;8.092;2022-11-11T02:55:26;100910.59;;;8.15;78.00
68859;BME280;55864;49.238;8.092;2022-11-11T02:57:46;100911.47;;;8.15;78.07
68859;BME280;55864;49.238;8.092;2022-11-11T03:00:07;100912.06;;;8.34;76.86
68859;BME280;55864;49.238;8.092;2022-11-11T03:02:26;100903.59;;;8.15;77.96
68859;BME280;55864;49.238;8.092;2022-11-11T03:04:45;100906.59;;;8.23;77.49
68859;BME280;55864;49.238;8.092;2022-11-11T03:07:05;100897.66;;;8.27;77.48
68859;BME280;55864;49.238;8.092;2022-11-11T03:09:24;100903.38;;;8.34;76.71
68859;BME280;55864;49.238;8.092;2022-11-11T03:11:44;100900.16;;;8.29;77.44
68859;BME280;55864;49.238;8.092;2022-11-11T03:14:04;100896.13;;;8.09;78.19
68859;BME280;55864;49.238;8.092;2022-11-11T03:16:23;100892.34;;;7.85;78.58
68859;BME280;55864;49.238;8.092;2022-11-11T03:18:42;100897.19;;;7.91;78.22
68859;BME280;55864;49.238;8.092;2022-11-11T03:21:01;100901.25;;;8.11;77.17
68859;BME280;55864;49.238;8.092;2022-11-11T03:23:20;100916.97;;;7.81;77.06
68859;BME280;55864;49.238;8.092;2022-11-11T03:25:41;100927.13;;;7.72;78.60
68859;BME280;55864;49.238;8.092;2022-11-11T03:28:00;100936.63;;;7.88;78.02
68859;BME280;55864;49.238;8.092;2022-11-11T03:30:20;100933.00;;;7.91;77.88
68859;BME280;55864;49.238;8.092;2022-11-11T03:32:39;100937.25;;;7.78;79.04
68859;BME280;55864;49.238;8.092;2022-11-11T03:34:58;100941.63;;;8.07;77.24
68859;BME280;55864;49.238;8.092;2022-11-11T03:37:17;100948.66;;;8.20;77.89
68859;BME280;55864;49.238;8.092;2022-11-11T03:39:36;100942.81;;;8.01;79.98
68859;BME280;55864;49.238;8.092;2022-11-11T03:41:55;100951.78;;;7.97;80.35
68859;BME280;55864;49.238;8.092;2022-11-11T03:44:14;100958.09;;;7.93;80.40
68859;BME280;55864;49.238;8.092;2022-11-11T03:46:34;100962.53;;;8.07;80.24
68859;BME280;55864;49.238;8.092;2022-11-11T03:48:53;100965.16;;;8.07;79.58
68859;BME280;55864;49.238;8.092;2022-11-11T03:51:12;100971.38;;;7.90;80.19
68859;BME280;55864;49.238;8.092;2022-11-11T03:53:31;100966.03;;;7.78;79.51
68859;BME280;55864;49.238;8.092;2022-11-11T03:55:50;100964.94;;;7.66;79.97
68859;BME280;55864;49.238;8.092;2022-11-11T03:58:10;100971.59;;;7.56;79.65
68859;BME280;55864;49.238;8.092;2022-11-11T04:00:29;100984.44;;;7.60;79.77
68859;BME280;55864;49.238;8.092;2022-11-11T04:02:50;100989.28;;;7.67;80.14
68859;BME280;55864;49.238;8.092;2022-11-11T04:05:09;100974.78;;;7.61;80.66
68859;BME280;55864;49.238;8.092;2022-11-11T04:07:28;100978.13;;;7.94;79.28
68859;BME280;55864;49.238;8.092;2022-11-11T04:09:47;100971.34;;;8.06;77.68
68859;BME280;55864;49.238;8.092;2022-11-11T04:12:05;100983.31;;;8.10;77.38
68859;BME280;55864;49.238;8.092;2022-11-11T04:14:24;100985.84;;;8.11;77.94
68859;BME280;55864;49.238;8.092;2022-11-11T04:16:43;100988.88;;;8.19;77.51
68859;BME280;55864;49.238;8.092;2022-11-11T04:19:03;100988.25;;;8.00;78.38
68859;BME280;55864;49.238;8.092;2022-11-11T04:21:23;100979.16;;;7.76;79.47
68859;BME280;55864;49.238;8.092;2022-11-11T04:23:42;100980.53;;;7.52;78.83
68859;BME280;55864;49.238;8.092;2022-11-11T04:26:01;100986.38;;;7.41;78.58
68859;BME280;55864;49.238;8.092;2022-11-11T04:28:21;100984.59;;;7.42;79.08
68859;BME280;55864;49.238;8.092;2022-11-11T04:30:40;100983.59;;;7.29;78.98
68859;BME280;55864;49.238;8.092;2022-11-11T04:33:02;100982.69;;;7.30;79.63
68859;BME280;55864;49.238;8.092;2022-11-11T04:35:49;100980.22;;;7.27;79.91
68859;BME280;55864;49.238;8.092;2022-11-11T04:38:07;100989.50;;;7.48;78.96
68859;BME280;55864;49.238;8.092;2022-11-11T04:40:26;101001.47;;;7.36;79.01
68859;BME280;55864;49.238;8.092;2022-11-11T04:42:45;101003.50;;;7.47;79.39
68859;BME280;55864;49.238;8.092;2022-11-11T04:45:05;101003.50;;;7.47;78.22
68859;BME280;55864;49.238;8.092;2022-11-11T04:47:24;101005.53;;;7.26;78.91
68859;BME280;55864;49.238;8.092;2022-11-11T04:49:43;101004.31;;;7.16;79.49
68859;BME280;55864;49.238;8.092;2022-11-11T04:52:04;101005.91;;;7.03;79.14
68859;BME280;55864;49.238;8.092;2022-11-11T04:54:23;101001.94;;;6.96;78.81
68859;BME280;55864;49.238;8.092;2022-11-11T04:56:42;101006.22;;;6.97;79.43
68859;BME280;55864;49.238;8.092;2022-11-11T04:59:01;101001.09;;;6.96;80.01
68859;BME280;55864;49.238;8.092;2022-11-11T05:01:19;101004.25;;;6.85;80.05
68859;BME280;55864;49.238;8.092;2022-11-11T05:03:38;101011.00;;;7.22;79.49
68859;BME280;55864;49.238;8.092;2022-11-11T05:05:59;101011.16;;;7.50;77.71
68859;BME280;55864;49.238;8.092;2022-11-11T05:08:19;101012.63;;;7.40;78.54
68859;BME280;55864;49.238;8.092;2022-11-11T05:10:39;101012.00;;;7.35;79.91
68859;BME280;55864;49.238;8.092;2022-11-11T05:12:57;101019.00;;;7.50;80.04
68859;BME280;55864;49.238;8.092;2022-11-11T05:15:16;101012.00;;;7.35;80.06
68859;BME280;55864;49.238;8.092;2022-11-11T05:17:35;101016.72;;;7.13;79.81
68859;BME280;55864;49.238;8.092;2022-11-11T05:19:54;101013.91;;;7.16;80.12
68859;BME280;55864;49.238;8.092;2022-11-11T05:22:17;101007.66;;;7.03;79.38
68859;BME280;55864;49.238;8.092;2022-11-11T05:24:38;101006.81;;;7.02;79.85
68859;BME280;55864;49.238;8.092;2022-11-11T05:26:57;101015.69;;;7.00;80.81
68859;BME280;55864;49.238;8.092;2022-11-11T05:29:16;101016.03;;;7.25;80.52
68859;BME280;55864;49.238;8.092;2022-11-11T05:31:35;101015.50;;;7.03;81.30
68859;BME280;55864;49.238;8.092;2022-11-11T05:33:55;101020.91;;;7.00;82.42
68859;BME280;55864;49.238;8.092;2022-11-11T05:36:14;101009.16;;;6.91;83.55
68859;BME280;55864;49.238;8.092;2022-11-11T05:38:33;101012.03;;;6.87;84.68
68859;BME280;55864;49.238;8.092;2022-11-11T05:40:55;101018.78;;;6.91;84.86
68859;BME280;55864;49.238;8.092;2022-11-11T05:43:14;101024.66;;;6.79;85.78
68859;BME280;55864;49.238;8.092;2022-11-11T05:45:33;101015.91;;;6.62;87.64
68859;BME280;55864;49.238;8.092;2022-11-11T05:47:52;101026.13;;;6.67;88.32
68859;BME280;55864;49.238;8.092;2022-11-11T05:50:11;101036.00;;;6.78;88.84
68859;BME280;55864;49.238;8.092;2022-11-11T05:52:30;101029.78;;;6.80;89.76
68859;BME280;55864;49.238;8.092;2022-11-11T05:54:49;101023.78;;;6.78;88.56
68859;BME280;55864;49.238;8.092;2022-11-11T05:57:10;101023.78;;;6.78;88.33
68859;BME280;55864;49.238;8.092;2022-11-11T05:59:29;101032.34;;;6.64;87.27
68859;BME280;55864;49.238;8.092;2022-11-11T06:01:48;101030.34;;;6.70;87.68
68859;BME280;55864;49.238;8.092;2022-11-11T06:04:07;101037.91;;;6.58;86.29
68859;BME280;55864;49.238;8.092;2022-11-11T06:06:26;101034.94;;;6.64;86.14
68859;BME280;55864;49.238;8.092;2022-11-11T06:08:45;101042.09;;;6.61;85.91
68859;BME280;55864;49.238;8.092;2022-11-11T06:11:04;101046.47;;;6.60;85.93
68859;BME280;55864;49.238;8.092;2022-11-11T06:13:24;101048.47;;;6.55;85.76
68859;BME280;55864;49.238;8.092;2022-11-11T06:15:43;101047.09;;;6.48;86.06
68859;BME280;55864;49.238;8.092;2022-11-11T06:18:03;101053.69;;;6.55;85.83
68859;BME280;55864;49.238;8.092;2022-11-11T06:20:23;101052.47;;;6.45;85.79
68859;BME280;55864;49.238;8.092;2022-11-11T06:22:42;101054.16;;;6.46;85.97
68859;BME280;55864;49.238;8.092;2022-11-11T06:25:01;101056.56;;;6.51;85.64
68859;BME280;55864;49.238;8.092;2022-11-11T06:27:20;101057.06;;;6.57;84.76
68859;BME280;55864;49.238;8.092;2022-11-11T06:29:40;101061.69;;;6.52;84.14
68859;BME280;55864;49.238;8.092;2022-11-11T06:31:59;101060.63;;;6.39;83.80
68859;BME280;55864;49.238;8.092;2022-11-11T06:34:18;101063.53;;;6.50;82.65
68859;BME280;55864;49.238;8.092;2022-11-11T06:36:37;101062.16;;;6.43;82.59
68859;BME280;55864;49.238;8.092;2022-11-11T06:38:56;101067.72;;;6.36;82.57
68859;BME280;55864;49.238;8.092;2022-11-11T06:41:15;101071.97;;;6.38;82.28
68859;BME280;55864;49.238;8.092;2022-11-11T06:43:34;101074.81;;;6.34;82.12
68859;BME280;55864;49.238;8.092;2022-11-11T06:45:55;101079.66;;;6.24;82.41
68859;BME280;55864;49.238;8.092;2022-11-11T06:48:14;101078.78;;;6.24;82.26
68859;BME280;55864;49.238;8.092;2022-11-11T06:50:33;101088.53;;;6.20;83.03
68859;BME280;55864;49.238;8.092;2022-11-11T06:52:53;101084.22;;;6.19;83.43
68859;BME280;55864;49.238;8.092;2022-11-11T06:55:12;101083.16;;;6.23;83.78
68859;BME280;55864;49.238;8.092;2022-11-11T06:57:31;101089.91;;;6.27;84.28
68859;BME280;55864;49.238;8.092;2022-11-11T06:59:51;101096.06;;;6.26;84.93
68859;BME280;55864;49.238;8.092;2022-11-11T07:02:12;101085.19;;;6.35;85.18
68859;BME280;55864;49.238;8.092;2022-11-11T07:04:32;101087.63;;;6.38;86.03
68859;BME280;55864;49.238;8.092;2022-11-11T07:06:50;101094.22;;;6.45;85.64
68859;BME280;55864;49.238;8.092;2022-11-11T07:09:09;101091.69;;;6.44;86.69
68859;BME280;55864;49.238;8.092;2022-11-11T07:11:28;101099.91;;;6.53;86.86
68859;BME280;55864;49.238;8.092;2022-11-11T07:13:47;101098.47;;;6.48;87.66
68859;BME280;55864;49.238;8.092;2022-11-11T07:16:06;101108.91;;;6.48;87.86
68859;BME280;55864;49.238;8.092;2022-11-11T07:18:27;101110.44;;;6.52;87.98
68859;BME280;55864;49.238;8.092;2022-11-11T07:20:45;101108.03;;;6.47;88.33
68859;BME280;55864;49.238;8.092;2022-11-11T07:23:05;101106.38;;;6.46;88.75
68859;BME280;55864;49.238;8.092;2022-11-11T07:25:24;101115.94;;;6.46;89.35
68859;BME280;55864;49.238;8.092;2022-11-11T07:27:43;101109.88;;;6.45;89.77
68859;BME280;55864;49.238;8.092;2022-11-11T07:30:03;101118.66;;;6.61;89.72
68859;BME280;55864;49.238;8.092;2022-11-11T07:32:22;101122.50;;;6.89;89.01
68859;BME280;55864;49.238;8.092;2022-11-11T07:34:43;101122.94;;;6.97;88.16
68859;BME280;55864;49.238;8.092;2022-11-11T07:37:01;101126.31;;;6.99;87.75
68859;BME280;55864;49.238;8.092;2022-11-11T07:39:20;101119.88;;;6.89;88.83
68859;BME280;55864;49.238;8.092;2022-11-11T07:41:39;101116.44;;;6.88;89.07
68859;BME280;55864;49.238;8.092;2022-11-11T07:43:58;101115.34;;;6.92;89.01
68859;BME280;55864;49.238;8.092;2022-11-11T07:46:17;101113.41;;;6.96;88.91
68859;BME280;55864;49.238;8.092;2022-11-11T07:48:37;101113.31;;;7.14;88.34
68859;BME280;55864;49.238;8.092;2022-11-11T07:50:57;101109.47;;;7.04;88.30
68859;BME280;55864;49.238;8.092;2022-11-11T07:53:16;101111.56;;;6.98;89.18
68859;BME280;55864;49.238;8.092;2022-11-11T07:55:35;101109.56;;;7.03;88.72
68859;BME280;55864;49.238;8.092;2022-11-11T07:57:54;101108.03;;;6.99;88.17
68859;BME280;55864;49.238;8.092;2022-11-11T08:00:13;101105.50;;;6.97;88.07
68859;BME280;55864;49.238;8.092;2022-11-11T08:02:32;101104.97;;;6.91;88.84
68859;BME280;55864;49.238;8.092;2022-11-11T08:04:51;101108.41;;;6.91;88.67
68859;BME280;55864;49.238;8.092;2022-11-11T08:07:12;101104.03;;;7.09;88.27
68859;BME280;55864;49.238;8.092;2022-11-11T08:09:31;101099.44;;;7.29;87.53
68859;BME280;55864;49.238;8.092;2022-11-11T08:11:50;101095.84;;;7.47;86.16
68859;BME280;55864;49.238;8.092;2022-11-11T08:14:09;101090.53;;;7.49;86.24
68859;BME280;55864;49.238;8.092;2022-11-11T08:16:28;101090.59;;;7.32;86.59
68859;BME280;55864;49.238;8.092;2022-11-11T08:18:46;101087.81;;;7.35;87.15
68859;BME280;55864;49.238;8.092;2022-11-11T08:21:06;101092.06;;;7.53;87.30
68859;BME280;55864;49.238;8.092;2022-11-11T08:23:26;101090.94;;;7.57;87.64
68859;BME280;55864;49.238;8.092;2022-11-11T08:25:46;101082.63;;;7.66;86.90
68859;BME280;55864;49.238;8.092;2022-11-11T08:28:04;101084.91;;;7.72;86.77
68859;BME280;55864;49.238;8.092;2022-11-11T08:30:23;101080.06;;;7.80;86.60
68859;BME280;55864;49.238;8.092;2022-11-11T08:32:42;101086.59;;;7.89;85.79
68859;BME280;55864;49.238;8.092;2022-11-11T08:35:01;101084.31;;;7.98;85.56
68859;BME280;55864;49.238;8.092;2022-11-11T08:37:20;101084.78;;;8.05;85.29
68859;BME280;55864;49.238;8.092;2022-11-11T08:39:41;101080.41;;;8.05;84.98
68859;BME280;55864;49.238;8.092;2022-11-11T08:42:00;101084.63;;;8.08;84.98
68859;BME280;55864;49.238;8.092;2022-11-11T08:44:19;101088.31;;;8.19;84.76
68859;BME280;55864;49.238;8.092;2022-11-11T08:46:38;101090.16;;;8.33;84.63
68859;BME280;55864;49.238;8.092;2022-11-11T08:48:57;101095.91;;;8.39;84.78
68859;BME280;55864;49.238;8.092;2022-11-11T08:51:16;101095.28;;;8.50;83.80
68859;BME280;55864;49.238;8.092;2022-11-11T08:53:35;101094.06;;;8.55;84.71
68859;BME280;55864;49.238;8.092;2022-11-11T08:55:55;101099.41;;;8.54;83.84
68859;BME280;55864;49.238;8.092;2022-11-11T08:58:15;101095.00;;;8.54;83.10
68859;BME280;55864;49.238;8.092;2022-11-11T09:00:34;101098.50;;;8.69;83.53
68859;BME280;55864;49.238;8.092;2022-11-11T09:02:53;101102.25;;;8.65;84.01
68859;BME280;55864;49.238;8.092;2022-11-11T09:05:12;101101.03;;;8.71;83.48
68859;BME280;55864;49.238;8.092;2022-11-11T09:07:31;101099.47;;;8.68;84.17
68859;BME280;55864;49.238;8.092;2022-11-11T09:09:51;101107.22;;;8.70;84.32
68859;BME280;55864;49.238;8.092;2022-11-11T09:12:11;101095.44;;;8.63;84.07
68859;BME280;55864;49.238;8.092;2022-11-11T09:14:30;101101.16;;;8.83;83.05
68859;BME280;55864;49.238;8.092;2022-11-11T09:16:49;101099.47;;;8.82;84.39
68859;BME280;55864;49.238;8.092;2022-11-11T09:19:08;101096.19;;;8.65;84.97
68859;BME280;55864;49.238;8.092;2022-11-11T09:21:26;101099.09;;;8.74;85.62
68859;BME280;55864;49.238;8.092;2022-11-11T09:23:45;101102.53;;;8.61;86.66
68859;BME280;55864;49.238;8.092;2022-11-11T09:26:04;101104.06;;;8.79;86.66
68859;BME280;55864;49.238;8.092;2022-11-11T09:28:24;101108.16;;;8.69;86.50
68859;BME280;55864;49.238;8.092;2022-11-11T09:30:44;101108.31;;;8.66;87.63
68859;BME280;55864;49.238;8.092;2022-11-11T09:33:03;101112.25;;;8.59;88.45
68859;BME280;55864;49.238;8.092;2022-11-11T09:35:22;101121.16;;;8.70;88.71
68859;BME280;55864;49.238;8.092;2022-11-11T09:37:42;101120.88;;;8.75;88.69
68859;BME280;55864;49.238;8.092;2022-11-11T09:40:15;101126.88;;;8.77;88.17
68859;BME280;55864;49.238;8.092;2022-11-11T09:42:38;101128.69;;;8.90;88.21
68859;BME280;55864;49.238;8.092;2022-11-11T09:45:11;101133.06;;;8.90;88.16
68859;BME280;55864;49.238;8.092;2022-11-11T09:47:38;101123.25;;;8.79;89.32
68859;BME280;55864;49.238;8.092;2022-11-11T09:50:01;101124.84;;;8.82;89.45
68859;BME280;55864;49.238;8.092;2022-11-11T09:52:23;101122.00;;;8.71;89.27
68859;BME280;55864;49.238;8.092;2022-11-11T09:54:49;101127.09;;;8.88;89.75
68859;BME280;55864;49.238;8.092;2022-11-11T09:57:14;101128.22;;;8.84;89.41
68859;BME280;55864;49.238;8.092;2022-11-11T09:59:40;101134.97;;;9.02;88.08
68859;BME280;55864;49.238;8.092;2022-11-11T10:02:03;101128.53;;;9.07;87.82
68859;BME280;55864;49.238;8.092;2022-11-11T10:04:32;101128.44;;;9.09;88.06
68859;BME280;55864;49.238;8.092;2022-11-11T10:06:58;101128.56;;;9.21;87.33
68859;BME280;55864;49.238;8.092;2022-11-11T10:09:23;101134.44;;;9.11;88.54
68859;BME280;55864;49.238;8.092;2022-11-11T10:11:49;101127.41;;;9.11;88.69
68859;BME280;55864;49.238;8.092;2022-11-11T10:14:09;101127.41;;;9.11;88.98
68859;BME280;55864;49.238;8.092;2022-11-11T10:16:36;101125.16;;;9.05;89.17
68859;BME280;55864;49.238;8.092;2022-11-11T10:19:15;101133.22;;;9.02;90.14
68859;BME280;55864;49.238;8.092;2022-11-11T10:21:40;101125.22;;;8.90;90.09
68859;BME280;55864;49.238;8.092;2022-11-11T10:24:07;101123.59;;;9.17;88.52
68859;BME280;55864;49.238;8.092;2022-11-11T10:26:36;101119.84;;;9.21;89.34
68859;BME280;55864;49.238;8.092;2022-11-11T10:28:56;101121.50;;;9.22;88.64
68859;BME280;55864;49.238;8.092;2022-11-11T10:31:19;101119.75;;;9.22;89.50
68859;BME280;55864;49.238;8.092;2022-11-11T10:33:43;101117.31;;;9.33;88.14
68859;BME280;55864;49.238;8.092;2022-11-11T10:36:13;101120.41;;;9.26;88.89
68859;BME280;55864;49.238;8.092;2022-11-11T10:38:36;101122.09;;;9.41;88.29
68859;BME280;55864;49.238;8.092;2022-11-11T10:41:04;101114.41;;;9.38;88.21
68859;BME280;55864;49.238;8.092;2022-11-11T10:43:28;101121.53;;;9.36;87.58
68859;BME280;55864;49.238;8.092;2022-11-11T10:45:53;101123.97;;;9.39;87.93
68859;BME280;55864;49.238;8.092;2022-11-11T10:48:17;101117.22;;;9.35;86.67
68859;BME280;55864;49.238;8.092;2022-11-11T10:50:42;101110.56;;;9.29;87.73
68859;BME280;55864;49.238;8.092;2022-11-11T10:53:08;101114.75;;;9.18;88.67
68859;BME280;55864;49.238;8.092;2022-11-11T10:55:35;101103.75;;;9.27;88.44
68859;BME280;55864;49.238;8.092;2022-11-11T10:58:05;101098.03;;;9.34;88.28
68859;BME280;55864;49.238;8.092;2022-11-11T11:00:26;101092.69;;;9.36;87.52
68859;BME280;55864;49.238;8.092;2022-11-11T11:02:52;101092.31;;;9.42;88.16
68859;BME280;55864;49.238;8.092;2022-11-11T11:05:16;101091.19;;;9.32;87.99
68859;BME280;55864;49.238;8.092;2022-11-11T11:07:42;101084.63;;;9.25;88.77
68859;BME280;55864;49.238;8.092;2022-11-11T11:10:07;101087.63;;;9.19;90.05
68859;BME280;55864;49.238;8.092;2022-11-11T11:12:35;101095.75;;;9.14;90.23
68859;BME280;55864;49.238;8.092;2022-11-11T11:15:01;101089.97;;;9.09;90.94
68859;BME280;55864;49.238;8.092;2022-11-11T11:17:24;101085.94;;;9.18;89.65
68859;BME280;55864;49.238;8.092;2022-11-11T11:20:06;101087.25;;;8.97;89.96
68859;BME280;55864;49.238;8.092;2022-11-11T11:22:44;101081.44;;;9.06;90.80
68859;BME280;55864;49.238;8.092;2022-11-11T11:25:12;101079.09;;;9.29;89.10
68859;BME280;55864;49.238;8.092;2022-11-11T11:27:31;101076.66;;;9.26;88.99
68859;BME280;55864;49.238;8.092;2022-11-11T11:29:50;101075.75;;;9.13;90.41
68859;BME280;55864;49.238;8.092;2022-11-11T11:32:15;101072.25;;;9.13;90.91
68859;BME280;55864;49.238;8.092;2022-11-11T11:34:48;101073.50;;;9.21;90.73
68859;BME280;55864;49.238;8.092;2022-11-11T11:37:08;101070.41;;;9.15;90.33
68859;BME280;55864;49.238;8.092;2022-11-11T11:39:34;101069.53;;;9.14;90.80
68859;BME280;55864;49.238;8.092;2022-11-11T11:41:55;101061.69;;;9.14;90.77
68859;BME280;55864;49.238;8.092;2022-11-11T11:44:24;101057.56;;;9.10;90.95
68859;BME280;55864;49.238;8.092;2022-11-11T11:46:44;101060.88;;;9.14;91.06
68859;BME280;55864;49.238;8.092;2022-11-11T11:49:11;101059.06;;;9.14;91.18
68859;BME280;55864;49.238;8.092;2022-11-11T11:51:41;101057.28;;;9.29;90.01
68859;BME280;55864;49.238;8.092;2022-11-11T11:54:12;101056.28;;;9.17;91.05
68859;BME280;55864;49.238;8.092;2022-11-11T11:56:37;101069.53;;;9.14;91.59
68859;BME280;55864;49.238;8.092;2022-11-11T11:59:03;101070.59;;;9.12;91.06
68859;BME280;55864;49.238;8.092;2022-11-11T12:01:31;101077.41;;;9.14;91.29
68859;BME280;55864;49.238;8.092;2022-11-11T12:06:51;101074.31;;;9.22;91.63
68859;BME280;55864;49.238;8.092;2022-11-11T12:09:26;101084.75;;;9.23;90.38
68859;BME280;55864;49.238;8.092;2022-11-11T12:11:53;101073.97;;;9.14;91.96
68859;BME280;55864;49.238;8.092;2022-11-11T12:14:34;101073.28;;;9.10;91.35
68859;BME280;55864;49.238;8.092;2022-11-11T12:16:59;101065.41;;;9.10;91.67
68859;BME280;55864;49.238;8.092;2022-11-11T12:19:41;101068.25;;;9.21;91.79
68859;BME280;55864;49.238;8.092;2022-11-11T12:22:11;101073.31;;;9.24;91.16
68859;BME280;55864;49.238;8.092;2022-11-11T12:24:48;101068.53;;;9.17;90.71
68859;BME280;55864;49.238;8.092;2022-11-11T12:27:15;101065.16;;;9.29;91.21
68859;BME280;55864;49.238;8.092;2022-11-11T12:29:50;101056.16;;;9.19;91.85
68859;BME280;55864;49.238;8.092;2022-11-11T12:32:30;101057.47;;;9.26;91.52